createdAt,value
2023-03-25T00:00:24.593Z,95337.25
2023-03-25T00:02:30.179Z,95328.00
2023-03-25T00:04:35.166Z,95328.63
2023-03-25T00:06:38.019Z,95327.00
2023-03-25T00:08:40.976Z,95278.06
2023-03-25T00:10:43.665Z,95254.81
2023-03-25T00:12:46.517Z,95317.97
2023-03-25T00:14:55.714Z,95280.53
2023-03-25T00:16:58.849Z,95340.59
2023-03-25T00:19:02.405Z,95339.94
2023-03-25T00:21:07.373Z,95328.75
2023-03-25T00:23:10.314Z,95271.28
2023-03-25T00:25:17.555Z,95329.03
2023-03-25T00:27:21.241Z,95331.22
2023-03-25T00:29:24.113Z,95345.72
2023-03-25T00:31:28.263Z,95342.31
2023-03-25T00:33:31.788Z,95337.75
2023-03-25T00:35:35.786Z,95328.38
2023-03-25T00:37:38.566Z,95323.84
2023-03-25T00:39:41.472Z,95315.56
2023-03-25T00:41:44.256Z,95300.81
2023-03-25T00:43:47.124Z,95303.13
2023-03-25T00:45:50.042Z,95246.72
2023-03-25T00:47:54.435Z,95297.53
2023-03-25T00:49:57.143Z,95294.53
2023-03-25T00:52:00.078Z,95202.16
2023-03-25T00:54:03.346Z,95164.22
2023-03-25T00:56:07.441Z,95273.75
2023-03-25T00:58:10.162Z,95264.03
2023-03-25T01:00:16.046Z,95197.03
2023-03-25T01:02:18.977Z,95275.88
2023-03-25T01:04:23.202Z,95269.50
2023-03-25T01:06:29.731Z,95283.31
2023-03-25T01:08:32.507Z,95248.72
2023-03-25T01:10:37.606Z,95265.31
2023-03-25T01:12:40.485Z,95317.25
2023-03-25T01:14:43.361Z,95316.84
2023-03-25T01:16:46.641Z,94981.66
2023-03-25T01:18:49.611Z,95295.56
2023-03-25T01:20:53.636Z,95308.50
2023-03-25T01:22:56.549Z,95301.94
2023-03-25T01:24:59.273Z,95294.56
2023-03-25T01:27:02.141Z,95298.94
2023-03-25T01:29:05.251Z,95289.84
2023-03-25T01:31:11.643Z,95286.69
2023-03-25T01:33:14.703Z,95178.69
2023-03-25T01:35:17.667Z,95307.44
2023-03-25T01:37:22.744Z,95289.72
2023-03-25T01:39:25.739Z,95283.06
2023-03-25T01:41:42.226Z,95285.44
2023-03-25T01:44:09.833Z,95279.66
2023-03-25T01:46:15.147Z,95281.28
2023-03-25T01:48:22.844Z,95280.22
2023-03-25T01:50:29.158Z,95233.88
2023-03-25T01:52:33.510Z,95266.22
2023-03-25T01:54:38.696Z,95264.94
2023-03-25T01:56:42.811Z,95265.25
2023-03-25T01:58:45.822Z,95149.66
2023-03-25T02:00:51.229Z,95216.47
2023-03-25T02:02:59.287Z,95246.47
2023-03-25T02:05:07.825Z,95249.56
2023-03-25T02:07:11.698Z,95252.31
2023-03-25T02:09:18.986Z,95244.63
2023-03-25T02:11:21.826Z,95217.56
2023-03-25T02:13:24.855Z,95261.75
2023-03-25T02:15:28.715Z,95263.75
2023-03-25T02:17:39.795Z,95273.59
2023-03-25T02:20:26.917Z,95275.88
2023-03-25T02:23:07.635Z,95282.19
2023-03-25T02:25:27.400Z,95292.03
2023-03-25T02:27:48.215Z,95316.47
2023-03-25T02:30:39.494Z,95318.84
2023-03-25T02:33:06.382Z,95345.25
2023-03-25T02:35:25.757Z,95375.09
2023-03-25T02:37:46.664Z,95334.97
2023-03-25T02:39:56.164Z,95246.91
2023-03-25T02:42:05.644Z,95384.50
2023-03-25T02:44:14.072Z,95354.34
2023-03-25T02:46:19.170Z,95262.72
2023-03-25T02:48:26.756Z,95292.03
2023-03-25T02:50:34.725Z,95273.16
2023-03-25T02:52:42.149Z,95264.56
2023-03-25T02:54:51.164Z,95275.25
2023-03-25T02:56:57.544Z,95258.50
2023-03-25T02:59:01.947Z,95265.16
2023-03-25T03:01:05.500Z,95284.63
2023-03-25T03:03:10.980Z,95292.97
2023-03-25T03:05:25.734Z,95301.56
2023-03-25T03:07:31.572Z,95012.38
2023-03-25T03:09:41.070Z,95282.03
2023-03-25T03:11:55.751Z,95294.63
2023-03-25T03:14:21.556Z,95300.53
2023-03-25T03:16:33.681Z,95289.84
2023-03-25T03:18:46.213Z,95202.84
2023-03-25T03:21:00.603Z,95251.66
2023-03-25T03:23:10.849Z,95280.81
2023-03-25T03:25:23.907Z,95172.31
2023-03-25T03:27:33.898Z,95280.00
2023-03-25T03:29:39.941Z,95274.44
2023-03-25T03:32:05.788Z,95210.72
2023-03-25T03:34:14.734Z,95240.91
2023-03-25T03:36:20.830Z,95273.97
2023-03-25T03:38:27.013Z,95279.88
2023-03-25T03:40:32.512Z,95279.53
2023-03-25T03:42:41.379Z,95126.50
2023-03-25T03:44:50.577Z,95291.94
2023-03-25T03:46:59.043Z,95277.44
2023-03-25T03:49:04.192Z,95263.66
2023-03-25T03:51:11.482Z,95284.00
2023-03-25T03:53:19.612Z,95259.59
2023-03-25T03:55:29.304Z,95020.16
2023-03-25T03:57:37.343Z,95179.88
2023-03-25T03:59:48.901Z,95266.06
2023-03-25T04:01:59.064Z,95295.53
2023-03-25T04:04:05.924Z,95290.75
2023-03-25T04:06:18.087Z,95300.13
2023-03-25T04:08:30.422Z,95290.84
2023-03-25T04:10:40.932Z,95290.75
2023-03-25T04:12:46.651Z,95291.09
2023-03-25T04:14:50.836Z,95302.00
2023-03-25T04:16:53.674Z,95295.03
2023-03-25T04:18:58.278Z,95290.66
2023-03-25T04:21:01.797Z,95291.00
2023-03-25T04:23:05.869Z,95286.22
2023-03-25T04:25:09.227Z,95285.81
2023-03-25T04:27:13.740Z,95259.69
2023-03-25T04:29:16.558Z,95283.53
2023-03-25T04:31:20.758Z,95288.84
2023-03-25T04:33:23.985Z,95299.53
2023-03-25T04:35:27.072Z,95282.84
2023-03-25T04:37:29.922Z,95304.19
2023-03-25T04:39:33.202Z,95292.09
2023-03-25T04:41:35.983Z,95290.38
2023-03-25T04:43:39.514Z,95303.16
2023-03-25T04:45:49.825Z,95207.38
2023-03-25T04:47:55.078Z,95287.63
2023-03-25T04:49:57.908Z,95252.19
2023-03-25T04:52:02.244Z,95289.81
2023-03-25T04:54:08.052Z,95292.72
2023-03-25T04:56:16.670Z,95291.91
2023-03-25T04:58:19.727Z,95303.16
2023-03-25T05:00:24.907Z,95293.09
2023-03-25T05:02:28.572Z,95176.13
2023-03-25T05:04:32.949Z,95272.63
2023-03-25T05:06:38.367Z,95258.50
2023-03-25T05:08:41.630Z,95311.88
2023-03-25T05:10:44.492Z,95245.56
2023-03-25T05:12:47.754Z,95311.88
2023-03-25T05:14:50.641Z,95322.28
2023-03-25T05:16:53.533Z,95324.16
2023-03-25T05:18:56.460Z,95290.94
2023-03-25T05:21:02.928Z,95304.72
2023-03-25T05:23:05.904Z,95318.81
2023-03-25T05:25:10.775Z,95276.00
2023-03-25T05:27:13.564Z,95309.28
2023-03-25T05:29:17.034Z,95305.94
2023-03-25T05:31:19.888Z,95204.94
2023-03-25T05:33:23.277Z,95271.09
2023-03-25T05:35:26.625Z,95246.47
2023-03-25T05:37:31.534Z,95328.91
2023-03-25T05:39:34.611Z,95329.72
2023-03-25T05:41:39.717Z,95323.00
2023-03-25T05:43:47.442Z,95188.28
2023-03-25T05:45:51.219Z,95326.56
2023-03-25T05:47:54.220Z,95323.69
2023-03-25T05:49:57.060Z,95310.72
2023-03-25T05:51:59.973Z,95292.91
2023-03-25T05:54:08.770Z,95349.06
2023-03-25T05:56:11.768Z,95355.44
2023-03-25T05:58:14.498Z,95364.50
2023-03-25T06:00:21.276Z,95369.81
2023-03-25T06:02:26.576Z,95377.34
2023-03-25T06:04:29.369Z,95337.25
2023-03-25T06:06:34.125Z,95377.22
2023-03-25T06:08:37.182Z,95308.63
2023-03-25T06:10:41.600Z,95370.59
2023-03-25T06:12:45.595Z,95371.75
2023-03-25T06:14:48.765Z,95372.88
2023-03-25T06:16:52.034Z,95374.34
2023-03-25T06:18:59.502Z,95357.19
2023-03-25T06:21:03.212Z,95376.50
2023-03-25T06:23:06.601Z,95372.78
2023-03-25T06:25:10.329Z,95379.63
2023-03-25T06:27:17.474Z,95378.81
2023-03-25T06:29:20.746Z,95369.19
2023-03-25T06:31:26.798Z,95369.94
2023-03-25T06:33:41.976Z,95359.94
2023-03-25T06:35:49.871Z,95365.94
2023-03-25T06:37:53.907Z,95370.56
2023-03-25T06:40:07.875Z,95367.88
2023-03-25T06:42:11.545Z,95369.22
2023-03-25T06:44:35.078Z,95379.34
2023-03-25T06:47:06.768Z,95383.78
2023-03-25T06:49:20.963Z,95372.78
2023-03-25T06:51:24.118Z,95387.56
2023-03-25T06:53:27.249Z,95379.75
2023-03-25T06:55:29.993Z,95383.47
2023-03-25T06:57:32.732Z,95397.44
2023-03-25T06:59:36.797Z,95391.34
2023-03-25T07:01:39.622Z,95290.28
2023-03-25T07:03:42.346Z,95371.47
2023-03-25T07:05:45.116Z,95395.09
2023-03-25T07:07:47.901Z,95375.69
2023-03-25T07:09:52.589Z,95387.34
2023-03-25T07:11:55.441Z,95350.69
2023-03-25T07:13:58.257Z,95382.81
2023-03-25T07:16:04.035Z,95381.50
2023-03-25T07:18:06.960Z,95385.56
2023-03-25T07:20:12.953Z,95393.19
2023-03-25T07:22:16.996Z,95385.41
2023-03-25T07:24:19.718Z,95402.66
2023-03-25T07:26:22.424Z,95368.22
2023-03-25T07:28:25.612Z,95398.03
2023-03-25T07:30:28.384Z,95415.28
2023-03-25T07:32:32.493Z,95402.28
2023-03-25T07:34:35.628Z,95335.97
2023-03-25T07:36:38.380Z,95387.69
2023-03-25T07:38:41.553Z,95386.25
2023-03-25T07:40:44.268Z,95388.56
2023-03-25T07:42:53.133Z,95391.41
2023-03-25T07:45:16.353Z,95388.66
2023-03-25T07:47:21.121Z,95399.03
2023-03-25T07:49:25.488Z,95390.25
2023-03-25T07:51:28.477Z,95319.53
2023-03-25T07:53:31.249Z,95389.78
2023-03-25T07:55:34.224Z,95397.72
2023-03-25T07:57:37.004Z,95387.50
2023-03-25T07:59:40.039Z,95382.50
2023-03-25T08:01:42.889Z,95368.09
2023-03-25T08:03:45.918Z,95402.75
2023-03-25T08:05:50.600Z,95389.88
2023-03-25T08:07:53.664Z,95391.72
2023-03-25T08:09:56.407Z,95384.63
2023-03-25T08:11:59.151Z,95396.84
2023-03-25T08:14:01.938Z,95387.47
2023-03-25T08:16:12.422Z,95395.16
2023-03-25T08:18:15.560Z,95387.69
2023-03-25T08:20:18.690Z,95361.94
2023-03-25T08:22:22.781Z,95392.06
2023-03-25T08:24:26.958Z,95393.38
2023-03-25T08:26:31.040Z,95398.56
2023-03-25T08:28:33.874Z,95275.59
2023-03-25T08:30:38.954Z,95337.59
2023-03-25T08:32:41.786Z,95391.56
2023-03-25T08:34:44.607Z,95388.47
2023-03-25T08:36:47.650Z,95389.06
2023-03-25T08:38:52.119Z,95390.19
2023-03-25T08:40:54.910Z,95387.50
2023-03-25T08:42:57.886Z,95386.47
2023-03-25T08:45:00.628Z,95371.47
2023-03-25T08:47:03.489Z,95392.53
2023-03-25T08:49:07.104Z,95381.31
2023-03-25T08:51:09.852Z,95377.59
2023-03-25T08:53:12.600Z,95388.84
2023-03-25T08:55:17.778Z,95374.66
2023-03-25T08:57:20.600Z,95373.16
2023-03-25T08:59:23.520Z,95350.00
2023-03-25T09:01:26.921Z,95363.34
2023-03-25T09:03:29.687Z,95367.06
2023-03-25T09:05:32.944Z,95344.66
2023-03-25T09:07:36.124Z,95361.41
2023-03-25T09:09:39.304Z,95361.19
2023-03-25T09:11:43.511Z,95358.16
2023-03-25T09:13:46.256Z,95352.69
2023-03-25T09:15:49.382Z,95374.47
2023-03-25T09:17:52.377Z,95336.69
2023-03-25T09:19:56.978Z,95361.44
2023-03-25T09:22:01.447Z,95367.19
2023-03-25T09:24:04.473Z,95372.34
2023-03-25T09:26:07.716Z,95358.81
2023-03-25T09:28:11.832Z,95369.94
2023-03-25T09:30:15.515Z,95361.66
2023-03-25T09:32:18.716Z,95361.59
2023-03-25T09:34:21.461Z,95370.16
2023-03-25T09:36:24.251Z,95351.41
2023-03-25T09:38:27.046Z,95365.94
2023-03-25T09:40:29.869Z,95372.63
2023-03-25T09:42:49.135Z,95377.78
2023-03-25T09:45:11.440Z,95368.06
2023-03-25T09:47:16.067Z,95376.84
2023-03-25T09:49:23.397Z,95371.84
2023-03-25T09:51:30.223Z,95370.78
2023-03-25T09:53:38.390Z,95354.06
2023-03-25T09:55:43.614Z,95375.50
2023-03-25T09:57:49.140Z,95358.78
2023-03-25T09:59:53.441Z,95373.03
2023-03-25T10:02:09.635Z,95372.59
2023-03-25T10:04:34.893Z,95376.34
2023-03-25T10:06:45.619Z,95363.31
2023-03-25T10:09:18.265Z,95364.78
2023-03-25T10:11:29.331Z,95367.66
2023-03-25T10:13:44.370Z,95372.06
2023-03-25T10:15:57.333Z,95368.91
2023-03-25T10:18:13.246Z,95353.59
2023-03-25T10:20:21.909Z,95362.31
2023-03-25T10:22:28.217Z,95373.22
2023-03-25T10:24:35.447Z,95365.66
2023-03-25T10:26:44.463Z,95366.88
2023-03-25T10:28:53.445Z,95374.22
2023-03-25T10:30:56.840Z,95379.59
2023-03-25T10:33:02.575Z,95385.19
2023-03-25T10:35:12.266Z,95400.72
2023-03-25T10:37:29.784Z,95383.09
2023-03-25T10:39:37.318Z,95390.69
2023-03-25T10:41:43.393Z,95378.69
2023-03-25T10:43:46.359Z,95373.66
2023-03-25T10:45:51.007Z,95377.44
2023-03-25T10:47:59.521Z,95303.72
2023-03-25T10:50:04.550Z,95353.34
2023-03-25T10:52:09.827Z,95318.69
2023-03-25T10:54:14.354Z,95385.81
2023-03-25T10:56:20.308Z,95376.00
2023-03-25T10:58:24.508Z,95369.66
2023-03-25T11:00:30.239Z,95375.84
2023-03-25T11:02:34.952Z,95395.66
2023-03-25T11:04:42.518Z,95396.00
2023-03-25T11:06:47.453Z,95397.28
2023-03-25T11:09:23.634Z,95371.97
2023-03-25T11:11:33.223Z,95367.28
2023-03-25T11:13:36.232Z,95401.19
2023-03-25T11:15:40.367Z,95401.22
2023-03-25T11:17:44.999Z,95318.25
2023-03-25T11:19:54.319Z,95401.41
2023-03-25T11:22:01.887Z,95392.44
2023-03-25T11:24:07.749Z,95364.41
2023-03-25T11:26:19.170Z,95406.94
2023-03-25T11:28:32.360Z,95382.66
2023-03-25T11:30:35.239Z,95370.56
2023-03-25T11:32:39.803Z,95362.88
2023-03-25T11:34:42.907Z,95342.69
2023-03-25T11:36:52.592Z,95324.97
2023-03-25T11:39:00.855Z,95295.69
2023-03-25T11:41:05.599Z,95307.53
2023-03-25T11:43:12.110Z,95360.69
2023-03-25T11:45:22.145Z,95360.50
2023-03-25T11:47:27.982Z,95360.47
2023-03-25T11:49:37.149Z,95370.44
2023-03-25T11:51:40.592Z,95359.41
2023-03-25T11:53:47.947Z,95374.47
2023-03-25T11:55:55.384Z,95403.81
2023-03-25T11:58:02.234Z,95327.97
2023-03-25T12:00:12.569Z,95354.31
2023-03-25T12:02:24.551Z,95356.69
2023-03-25T12:04:27.312Z,95356.97
2023-03-25T12:06:30.134Z,95342.97
2023-03-25T12:08:43.667Z,95351.56
2023-03-25T12:10:53.700Z,95358.06
2023-03-25T12:13:05.467Z,95228.78
2023-03-25T12:15:21.629Z,95380.41
2023-03-25T12:17:36.318Z,95414.78
2023-03-25T12:19:52.228Z,95412.97
2023-03-25T12:22:21.208Z,95409.75
2023-03-25T12:24:36.702Z,95398.16
2023-03-25T12:26:49.708Z,95404.34
2023-03-25T12:29:14.862Z,95395.72
2023-03-25T12:31:31.381Z,95397.81
2023-03-25T12:33:48.029Z,95393.53
2023-03-25T12:36:16.394Z,95401.81
2023-03-25T12:38:40.218Z,95395.44
2023-03-25T12:40:56.537Z,95363.97
2023-03-25T12:43:05.623Z,95371.47
2023-03-25T12:45:27.983Z,95378.59
2023-03-25T12:47:36.807Z,95376.34
2023-03-25T12:49:52.607Z,95401.03
2023-03-25T12:52:04.130Z,95396.25
2023-03-25T12:54:20.064Z,95389.28
2023-03-25T12:56:36.898Z,95396.56
2023-03-25T12:59:11.608Z,95442.41
2023-03-25T13:01:24.265Z,95406.09
2023-03-25T13:03:44.895Z,95426.06
2023-03-25T13:05:55.529Z,95429.38
2023-03-25T13:08:04.307Z,95412.06
2023-03-25T13:10:16.544Z,95412.66
2023-03-25T13:12:29.146Z,95404.56
2023-03-25T13:14:36.990Z,95407.31
2023-03-25T13:16:43.843Z,95397.81
2023-03-25T13:18:50.879Z,95379.19
2023-03-25T13:21:02.400Z,95379.06
2023-03-25T13:23:12.341Z,95387.50
2023-03-25T13:25:22.545Z,95298.22
2023-03-25T13:27:25.884Z,95256.13
2023-03-25T13:29:34.337Z,95375.94
2023-03-25T13:31:42.318Z,95386.50
2023-03-25T13:33:52.410Z,95349.28
2023-03-25T13:36:01.322Z,95377.84
2023-03-25T13:38:13.095Z,95342.81
2023-03-25T13:40:26.335Z,95333.78
2023-03-25T13:42:38.899Z,95276.88
2023-03-25T13:44:46.970Z,95334.38
2023-03-25T13:46:53.672Z,95342.50
2023-03-25T13:49:03.240Z,95337.34
2023-03-25T13:51:06.819Z,95364.56
2023-03-25T13:53:18.235Z,95348.63
2023-03-25T13:55:26.494Z,95334.81
2023-03-25T13:57:44.367Z,95212.78
2023-03-25T14:00:10.269Z,95376.44
2023-03-25T14:02:36.025Z,95360.28
2023-03-25T14:04:54.828Z,95367.53
2023-03-25T14:07:17.431Z,95372.47
2023-03-25T14:09:50.409Z,95363.09
2023-03-25T14:12:00.225Z,95368.44
2023-03-25T14:14:07.852Z,95377.50
2023-03-25T14:16:15.461Z,95364.41
2023-03-25T14:18:20.651Z,95363.72
2023-03-25T14:20:30.720Z,95389.50
2023-03-25T14:22:40.382Z,95333.28
2023-03-25T14:24:46.903Z,95351.00
2023-03-25T14:26:53.389Z,95364.84
2023-03-25T14:28:58.151Z,95354.59
2023-03-25T14:31:09.637Z,95358.09
2023-03-25T14:33:13.036Z,95351.06
2023-03-25T14:35:51.897Z,95366.38
2023-03-25T14:37:54.696Z,95351.53
2023-03-25T14:40:00.792Z,95368.13
2023-03-25T14:42:05.059Z,95348.09
2023-03-25T14:44:20.537Z,95336.09
2023-03-25T14:46:26.183Z,95360.72
2023-03-25T14:48:37.422Z,95368.47
2023-03-25T14:50:40.878Z,95363.78
2023-03-25T14:52:49.042Z,95383.88
2023-03-25T14:54:54.014Z,95400.03
2023-03-25T14:57:03.898Z,95315.28
2023-03-25T14:59:10.865Z,95422.38
2023-03-25T15:01:19.230Z,95395.66
2023-03-25T15:03:23.898Z,95287.22
2023-03-25T15:05:29.762Z,95394.13
2023-03-25T15:07:49.906Z,95385.50
2023-03-25T15:09:55.918Z,95385.88
2023-03-25T15:12:00.879Z,95384.44
2023-03-25T15:14:06.725Z,95400.41
2023-03-25T15:16:19.408Z,95362.13
2023-03-25T15:18:55.646Z,95385.16
2023-03-25T15:21:04.258Z,95340.31
2023-03-25T15:23:33.336Z,95381.66
2023-03-25T15:25:37.541Z,95295.28
2023-03-25T15:28:00.552Z,95392.53
2023-03-25T15:30:13.137Z,95366.47
2023-03-25T15:32:30.484Z,95390.69
2023-03-25T15:34:50.318Z,95316.84
2023-03-25T15:37:16.544Z,95387.13
2023-03-25T15:39:38.303Z,95378.09
2023-03-25T15:42:06.527Z,95342.94
2023-03-25T15:44:37.381Z,95361.22
2023-03-25T15:47:00.455Z,95361.31
2023-03-25T15:49:17.019Z,95392.59
2023-03-25T15:51:37.223Z,95169.88
2023-03-25T15:54:04.665Z,95374.31
2023-03-25T15:56:11.453Z,95362.56
2023-03-25T15:58:23.135Z,95357.50
2023-03-25T16:00:30.317Z,95349.09
2023-03-25T16:02:37.964Z,95366.22
2023-03-25T16:04:44.220Z,95389.22
2023-03-25T16:06:52.052Z,95258.41
2023-03-25T16:08:59.448Z,95352.00
2023-03-25T16:11:16.986Z,95375.63
2023-03-25T16:13:23.815Z,95343.56
2023-03-25T16:15:29.326Z,95360.34
2023-03-25T16:17:35.494Z,95343.50
2023-03-25T16:19:43.285Z,95346.91
2023-03-25T16:21:49.746Z,95339.97
2023-03-25T16:23:54.716Z,95346.47
2023-03-25T16:25:57.705Z,95342.31
2023-03-25T16:28:03.421Z,95357.91
2023-03-25T16:30:21.767Z,95345.94
2023-03-25T16:32:27.098Z,95337.50
2023-03-25T16:34:35.549Z,95342.91
2023-03-25T16:36:38.291Z,95340.06
2023-03-25T16:38:41.140Z,95299.59
2023-03-25T16:40:46.828Z,95333.50
2023-03-25T16:42:50.149Z,95331.31
2023-03-25T16:44:54.596Z,95323.69
2023-03-25T16:46:57.576Z,95357.47
2023-03-25T16:49:01.439Z,95332.72
2023-03-25T16:51:12.357Z,95335.03
2023-03-25T16:53:18.090Z,95309.66
2023-03-25T16:55:32.534Z,95342.63
2023-03-25T16:57:38.612Z,95306.72
2023-03-25T16:59:41.976Z,95341.97
2023-03-25T17:01:53.399Z,95343.47
2023-03-25T17:04:09.996Z,95342.19
2023-03-25T17:06:22.503Z,95348.38
2023-03-25T17:08:25.356Z,95272.50
2023-03-25T17:10:30.312Z,95162.88
2023-03-25T17:12:33.112Z,95343.53
2023-03-25T17:14:40.020Z,95337.06
2023-03-25T17:16:43.432Z,95349.97
2023-03-25T17:18:48.753Z,95312.34
2023-03-25T17:20:57.557Z,95345.91
2023-03-25T17:23:04.395Z,95299.78
2023-03-25T17:25:18.486Z,95330.38
2023-03-25T17:27:26.187Z,95351.56
2023-03-25T17:29:29.758Z,95349.91
2023-03-25T17:31:34.745Z,95366.59
2023-03-25T17:33:39.624Z,95372.69
2023-03-25T17:35:46.779Z,95330.38
2023-03-25T17:37:51.139Z,95391.81
2023-03-25T17:39:54.029Z,95396.84
2023-03-25T17:42:01.394Z,95428.50
2023-03-25T17:44:04.961Z,95419.06
2023-03-25T17:46:08.607Z,95442.78
2023-03-25T17:48:16.066Z,95440.66
2023-03-25T17:50:22.204Z,95436.78
2023-03-25T17:52:29.534Z,95427.06
2023-03-25T17:54:34.183Z,95392.19
2023-03-25T17:56:39.556Z,95428.69
2023-03-25T17:58:42.662Z,95409.56
2023-03-25T18:00:47.673Z,95422.31
2023-03-25T18:02:50.540Z,95424.28
2023-03-25T18:04:53.279Z,95370.28
2023-03-25T18:06:55.983Z,95425.44
2023-03-25T18:09:00.719Z,95426.97
2023-03-25T18:11:03.436Z,95426.44
2023-03-25T18:13:06.308Z,95403.44
2023-03-25T18:15:10.461Z,95434.00
2023-03-25T18:17:13.837Z,95491.50
2023-03-25T18:19:18.593Z,95426.88
2023-03-25T18:21:23.205Z,95459.28
2023-03-25T18:23:25.919Z,95465.22
2023-03-25T18:25:31.717Z,95471.88
2023-03-25T18:27:43.308Z,95381.31
2023-03-25T18:29:47.025Z,95431.41
2023-03-25T18:31:49.920Z,95484.28
2023-03-25T18:33:53.079Z,95466.28
2023-03-25T18:35:56.488Z,95467.34
2023-03-25T18:37:59.315Z,95432.16
2023-03-25T18:40:05.274Z,95438.81
2023-03-25T18:42:09.368Z,95451.03
2023-03-25T18:44:12.706Z,95452.59
2023-03-25T18:46:16.402Z,95425.88
2023-03-25T18:48:21.614Z,95418.06
2023-03-25T18:50:29.338Z,95438.88
2023-03-25T18:52:32.099Z,95445.44
2023-03-25T18:54:34.841Z,95450.56
2023-03-25T18:56:38.064Z,95440.50
2023-03-25T18:58:42.251Z,95445.94
2023-03-25T19:00:45.937Z,95447.22
2023-03-25T19:02:49.619Z,95448.44
2023-03-25T19:05:00.763Z,95438.66
2023-03-25T19:07:05.048Z,95431.69
2023-03-25T19:09:09.179Z,95433.88
2023-03-25T19:11:21.005Z,95429.25
2023-03-25T19:13:24.671Z,95414.03
2023-03-25T19:15:32.304Z,95348.44
2023-03-25T19:17:35.167Z,95454.63
2023-03-25T19:19:38.136Z,95386.75
2023-03-25T19:21:42.156Z,95444.72
2023-03-25T19:23:45.053Z,95452.66
2023-03-25T19:25:49.454Z,95454.63
2023-03-25T19:27:52.185Z,95487.34
2023-03-25T19:29:55.423Z,95472.69
2023-03-25T19:31:59.457Z,95491.88
2023-03-25T19:34:02.210Z,95497.81
2023-03-25T19:36:05.626Z,95494.00
2023-03-25T19:38:08.865Z,95509.56
2023-03-25T19:40:14.310Z,95505.91
2023-03-25T19:42:17.168Z,95515.56
2023-03-25T19:44:20.000Z,95524.13
2023-03-25T19:46:23.872Z,95535.50
2023-03-25T19:48:29.663Z,95541.66
2023-03-25T19:50:34.526Z,95400.16
2023-03-25T19:52:37.312Z,95542.81
2023-03-25T19:54:40.306Z,95499.91
2023-03-25T19:56:43.435Z,95516.13
2023-03-25T19:58:46.236Z,95489.41
2023-03-25T20:00:49.373Z,95510.50
2023-03-25T20:02:54.641Z,95495.59
2023-03-25T20:04:58.809Z,94998.63
2023-03-25T20:07:01.897Z,95392.25
2023-03-25T20:09:08.086Z,95475.91
2023-03-25T20:11:12.200Z,95451.53
2023-03-25T20:13:15.597Z,95473.72
2023-03-25T20:15:19.941Z,95407.97
2023-03-25T20:17:22.795Z,95479.25
2023-03-25T20:19:26.866Z,95464.50
2023-03-25T20:21:31.233Z,95462.94
2023-03-25T20:23:34.031Z,95473.56
2023-03-25T20:25:38.391Z,95208.31
2023-03-25T20:27:42.000Z,95457.53
2023-03-25T20:29:44.951Z,95457.53
2023-03-25T20:31:48.109Z,95434.34
2023-03-25T20:33:51.472Z,95428.94
2023-03-25T20:35:54.495Z,95474.47
2023-03-25T20:37:58.860Z,95474.94
2023-03-25T20:40:01.623Z,95481.09
2023-03-25T20:42:04.714Z,95485.06
2023-03-25T20:44:07.676Z,95477.13
2023-03-25T20:46:13.705Z,95450.72
2023-03-25T20:48:16.540Z,95481.34
2023-03-25T20:50:19.358Z,95434.75
2023-03-25T20:52:22.151Z,95459.78
2023-03-25T20:54:26.997Z,95414.16
2023-03-25T20:56:29.902Z,95395.59
2023-03-25T20:58:33.447Z,95471.28
2023-03-25T21:00:36.678Z,95463.44
2023-03-25T21:02:39.791Z,95452.66
2023-03-25T21:04:43.076Z,95464.41
2023-03-25T21:06:46.055Z,95459.72
2023-03-25T21:08:49.402Z,95459.78
2023-03-25T21:10:54.408Z,95453.78
2023-03-25T21:12:58.055Z,95469.25
2023-03-25T21:15:01.321Z,95456.22
2023-03-25T21:17:04.163Z,95433.22
2023-03-25T21:19:08.240Z,95464.47
2023-03-25T21:21:11.064Z,95464.47
2023-03-25T21:23:13.854Z,95459.78
2023-03-25T21:25:16.954Z,95463.81
2023-03-25T21:27:22.006Z,95474.34
2023-03-25T21:29:41.182Z,95475.97
2023-03-25T21:31:43.952Z,95463.16
2023-03-25T21:33:48.845Z,95440.59
2023-03-25T21:35:54.317Z,95452.47
2023-03-25T21:38:00.959Z,95466.72
2023-03-25T21:40:03.848Z,95453.50
2023-03-25T21:42:11.248Z,95402.44
2023-03-25T21:44:16.402Z,95454.06
2023-03-25T21:46:19.370Z,95458.03
2023-03-25T21:48:23.933Z,95432.25
2023-03-25T21:50:28.130Z,95451.06
2023-03-25T21:52:30.843Z,95324.63
2023-03-25T21:54:33.621Z,95418.47
2023-03-25T21:56:42.228Z,95425.31
2023-03-25T21:58:46.929Z,95456.53
2023-03-25T22:00:57.691Z,95453.53
2023-03-25T22:03:00.458Z,95407.88
2023-03-25T22:05:03.546Z,95438.66
2023-03-25T22:07:06.516Z,95446.69
2023-03-25T22:09:09.260Z,95419.59
2023-03-25T22:11:14.468Z,95306.19
2023-03-25T22:13:17.158Z,95451.19
2023-03-25T22:15:19.876Z,95443.16
2023-03-25T22:17:24.122Z,95245.78
2023-03-25T22:19:26.867Z,95443.84
2023-03-25T22:21:33.171Z,95451.84
2023-03-25T22:23:36.593Z,95454.50
2023-03-25T22:25:39.335Z,95392.78
2023-03-25T22:27:42.126Z,95447.56
2023-03-25T22:29:45.423Z,95407.03
2023-03-25T22:31:50.909Z,95448.84
2023-03-25T22:33:58.427Z,95449.47
2023-03-25T22:36:06.715Z,95427.97
2023-03-25T22:38:09.966Z,95475.47
2023-03-25T22:40:13.971Z,95482.69
2023-03-25T22:42:16.817Z,95481.63
2023-03-25T22:44:19.937Z,95489.34
2023-03-25T22:46:23.242Z,95468.16
2023-03-25T22:48:26.081Z,95465.03
2023-03-25T22:50:31.448Z,95489.75
2023-03-25T22:52:34.422Z,95490.66
2023-03-25T22:54:37.451Z,95482.06
2023-03-25T22:56:40.518Z,95339.88
2023-03-25T22:58:43.327Z,95323.31
2023-03-25T23:00:46.200Z,95201.19
2023-03-25T23:02:49.046Z,94862.66
2023-03-25T23:04:52.205Z,95462.47
2023-03-25T23:07:07.220Z,95448.19
2023-03-25T23:09:11.725Z,95462.41
2023-03-25T23:11:17.342Z,95415.97
2023-03-25T23:13:20.675Z,95350.94
2023-03-25T23:15:23.441Z,95454.66
2023-03-25T23:17:27.174Z,95459.88
2023-03-25T23:19:29.918Z,95351.88
2023-03-25T23:21:34.136Z,95444.97
2023-03-25T23:23:38.317Z,95447.53
2023-03-25T23:26:03.725Z,95410.13
2023-03-25T23:28:06.696Z,95449.16
2023-03-25T23:30:10.050Z,95391.38
2023-03-25T23:32:12.837Z,95432.47
2023-03-25T23:34:17.104Z,95433.03
2023-03-25T23:36:20.760Z,95439.34
2023-03-25T23:38:24.901Z,95441.06
2023-03-25T23:40:29.276Z,95445.22
2023-03-25T23:42:35.727Z,95439.56
2023-03-25T23:44:39.077Z,95450.09
2023-03-25T23:46:42.698Z,95453.34
2023-03-25T23:48:45.664Z,95450.88
2023-03-25T23:50:48.484Z,95277.88
2023-03-25T23:52:51.346Z,95443.22
2023-03-25T23:54:54.185Z,95353.13
2023-03-25T23:56:59.066Z,95449.25
2023-03-25T23:59:02.135Z,95443.94
